Portada
METAR-TAF:

METAR-TAF

Aeroports :

Sint Maarten, Antilles Neerlandeses

latitud: 18-03N, longitud: 063-07W, altitud: 4 m

Observació

L'informe es va fer fa 54 minuts, a les 21:00 UTC
Vent 6 kt del Est/Sud-Est
Temperatura 30°C
Humitat 62%
Pressió 1016 hPa
Visibilitat 10 km o més
Escasses núvols a una alçada de 2000 ft

METAR: TNCM 272100Z 12006KT 9999 FEW020 30/22 Q1016 NOSIG

Hora: 17:54 (21:54 UTC)

Pronòstic

L'informe es va fer fa 4 hores i 18 minuts, a les 17:36 UTC
Pronòstic vàlid del 27 a les 18 UTC al 28 a les 18 UTC
Vent 10 kt del Sud-Est
Visibilitat: 10 km
Núvols disperses a una alçada de 2000 ft
A partir de les 27 a les 2230 UTC
Vent 4 kt amb direcció variable
Visibilitat: 10 km
Escasses núvols a una alçada de 1900 ft
A partir de les 28 a les 1400 UTC
Vent 10 kt del Sud-Est
Visibilitat: 10 km
Escasses núvols a una alçada de 2200 ft

TAF: TNCM 271736Z 2718/2818 13010KT P6SM SCT020 FM272230 VRB04KT P6SM FEW019 FM281400 13010KT P6SM FEW022

Observacions i pronòstics meteorològics de més de 4000 aeroports (METAR i TAF).

Les estacions disponibles són els punts grocs i vermells al mapa.

Posi el ratolí al punt desitjat per veure el nom de l'estació.

Feu clic per veure les observacions i els pronòstics meteorològics.

Per canviar el mapa: feu clic els botons verds amb una creu de color negre per apropar; al botó verd amb un guió per allunyar la imatge; o en les fletxes verdes per a mapes adjacents.


METAR-TAF: